Front Circassia — V7JX6 — position and weather

sailwx.info

Track history (hours):
 
Tides and Currents Weather Stations Pressure Air Temp Water Temp Dewpoint Dewpoint Depression Visibility Wind Speed Wind Dir Waves Ship Positions

Front Circassia

Last reported at 2016-Feb-08 23:23 UTC. Time now 2016-Feb-14 06:00 UTC.
Position S 22°50' W 041°20'.

Length 333 m; draft 11 m.

Type: Tanker. MMSI: 538002584.

Date/timePositionNaut miles runAvg speedWind from/ knotsBaromVisibWave heightAir tempDewpointWater temp
2016-Feb-08 23:23S 22°50' W 041°20'1112.3
2016-Feb-08 22:32S 22°56' W 041°28'2812.5
2016-Feb-08 20:18S 23°11' W 041°54'911.6
2016-Feb-08 19:34S 23°15' W 042°03'1312.5
2016-Feb-08 18:33S 23°12' W 042°16'1212.2
2016-Feb-08 17:33S 23°11' W 042°29'  
2016-Feb-04 06:28S 23°15' W 041°33'10 9.4
2016-Feb-04 05:25S 23°07' W 041°27'1210.2
2016-Feb-04 04:13S 22°57' W 041°20'710.5
2016-Feb-04 03:33S 22°50' W 041°16'  
Track history (hours):
 
Tides and Currents Weather Stations Pressure Air Temp Water Temp Dewpoint Dewpoint Depression Visibility Wind Speed Wind Dir Waves Ship Positions

Front Circassia

Last reported at 2016-Feb-08 23:23 UTC. Time now 2016-Feb-14 06:00 UTC.
Position S 22°50' W 041°20'.

Length 333 m; draft 11 m.

Type: Tanker. MMSI: 538002584.

Date/timePositionNaut miles runAvg speedWind from/ knotsBaromVisibWave heightAir tempDewpointWater temp
2016-Feb-08 23:23S 22°50' W 041°20'1112.3
2016-Feb-08 22:32S 22°56' W 041°28'2812.5
2016-Feb-08 20:18S 23°11' W 041°54'911.6
2016-Feb-08 19:34S 23°15' W 042°03'1312.5
2016-Feb-08 18:33S 23°12' W 042°16'1212.2
2016-Feb-08 17:33S 23°11' W 042°29'  
2016-Feb-04 06:28S 23°15' W 041°33'10 9.4
2016-Feb-04 05:25S 23°07' W 041°27'1210.2
2016-Feb-04 04:13S 22°57' W 041°20'710.5
2016-Feb-04 03:33S 22°50' W 041°16'  

Dump ship's entire track history